sensor_id;sensor_type;location;lat;lon;timestamp;temperature;humidity
6865;DHT22;3471;49.678;8.388;2024-03-08T00:00:40;6.90;99.90
6865;DHT22;3471;49.678;8.388;2024-03-08T00:03:08;6.90;99.90
6865;DHT22;3471;49.678;8.388;2024-03-08T00:05:35;6.80;99.90
6865;DHT22;3471;49.678;8.388;2024-03-08T00:08:02;6.80;99.90
6865;DHT22;3471;49.678;8.388;2024-03-08T00:10:27;6.70;99.90
6865;DHT22;3471;49.678;8.388;2024-03-08T00:12:54;6.70;99.90
6865;DHT22;3471;49.678;8.388;2024-03-08T00:15:20;6.70;99.90
6865;DHT22;3471;49.678;8.388;2024-03-08T00:17:48;6.60;99.90
6865;DHT22;3471;49.678;8.388;2024-03-08T00:20:14;6.60;99.90
6865;DHT22;3471;49.678;8.388;2024-03-08T00:22:39;6.60;99.90
6865;DHT22;3471;49.678;8.388;2024-03-08T00:25:07;6.60;99.90
6865;DHT22;3471;49.678;8.388;2024-03-08T00:27:37;6.50;99.90
6865;DHT22;3471;49.678;8.388;2024-03-08T00:30:09;6.50;99.90
6865;DHT22;3471;49.678;8.388;2024-03-08T00:32:36;6.50;99.90
6865;DHT22;3471;49.678;8.388;2024-03-08T00:35:02;6.50;99.90
6865;DHT22;3471;49.678;8.388;2024-03-08T00:37:27;6.50;99.90
6865;DHT22;3471;49.678;8.388;2024-03-08T00:39:53;6.50;99.90
6865;DHT22;3471;49.678;8.388;2024-03-08T00:42:20;6.40;99.90
6865;DHT22;3471;49.678;8.388;2024-03-08T00:44:46;6.50;99.90
6865;DHT22;3471;49.678;8.388;2024-03-08T00:47:13;6.40;99.90
6865;DHT22;3471;49.678;8.388;2024-03-08T00:49:41;6.40;99.90
6865;DHT22;3471;49.678;8.388;2024-03-08T00:52:07;6.40;99.90
6865;DHT22;3471;49.678;8.388;2024-03-08T00:54:34;6.30;99.90
6865;DHT22;3471;49.678;8.388;2024-03-08T00:56:59;6.30;99.90
6865;DHT22;3471;49.678;8.388;2024-03-08T00:59:28;6.30;99.90
6865;DHT22;3471;49.678;8.388;2024-03-08T01:01:54;6.30;99.90
6865;DHT22;3471;49.678;8.388;2024-03-08T01:04:20;6.30;99.90
6865;DHT22;3471;49.678;8.388;2024-03-08T01:06:46;6.20;99.90
6865;DHT22;3471;49.678;8.388;2024-03-08T01:09:13;6.20;99.90
6865;DHT22;3471;49.678;8.388;2024-03-08T01:11:38;6.20;99.90
6865;DHT22;3471;49.678;8.388;2024-03-08T01:14:04;6.20;99.90
6865;DHT22;3471;49.678;8.388;2024-03-08T01:16:30;6.10;99.90
6865;DHT22;3471;49.678;8.388;2024-03-08T01:18:56;6.10;99.90
6865;DHT22;3471;49.678;8.388;2024-03-08T01:21:22;6.10;99.90
6865;DHT22;3471;49.678;8.388;2024-03-08T01:23:47;6.10;99.90
6865;DHT22;3471;49.678;8.388;2024-03-08T01:26:13;6.10;99.90
6865;DHT22;3471;49.678;8.388;2024-03-08T01:28:40;6.00;99.90
6865;DHT22;3471;49.678;8.388;2024-03-08T01:31:06;6.00;99.90
6865;DHT22;3471;49.678;8.388;2024-03-08T01:33:31;6.00;99.90
6865;DHT22;3471;49.678;8.388;2024-03-08T01:35:57;5.90;99.90
6865;DHT22;3471;49.678;8.388;2024-03-08T01:38:23;5.90;99.90
6865;DHT22;3471;49.678;8.388;2024-03-08T01:40:49;5.90;99.90
6865;DHT22;3471;49.678;8.388;2024-03-08T01:43:26;5.90;99.90
6865;DHT22;3471;49.678;8.388;2024-03-08T01:45:58;5.80;99.90
6865;DHT22;3471;49.678;8.388;2024-03-08T01:48:27;5.80;99.90
6865;DHT22;3471;49.678;8.388;2024-03-08T01:50:56;5.80;99.90
6865;DHT22;3471;49.678;8.388;2024-03-08T01:53:26;5.80;99.90
6865;DHT22;3471;49.678;8.388;2024-03-08T01:55:55;5.80;99.90
6865;DHT22;3471;49.678;8.388;2024-03-08T01:58:23;5.70;99.90
6865;DHT22;3471;49.678;8.388;2024-03-08T02:00:49;5.80;99.90
6865;DHT22;3471;49.678;8.388;2024-03-08T02:03:15;5.70;99.90
6865;DHT22;3471;49.678;8.388;2024-03-08T02:05:41;5.70;99.90
6865;DHT22;3471;49.678;8.388;2024-03-08T02:08:07;5.80;99.90
6865;DHT22;3471;49.678;8.388;2024-03-08T02:10:34;5.80;99.90
6865;DHT22;3471;49.678;8.388;2024-03-08T02:13:01;5.70;99.90
6865;DHT22;3471;49.678;8.388;2024-03-08T02:18:15;5.70;99.90
6865;DHT22;3471;49.678;8.388;2024-03-08T02:20:42;5.80;99.90
6865;DHT22;3471;49.678;8.388;2024-03-08T02:23:08;5.80;99.90
6865;DHT22;3471;49.678;8.388;2024-03-08T02:25:35;5.80;99.90
6865;DHT22;3471;49.678;8.388;2024-03-08T02:28:00;5.80;99.90
6865;DHT22;3471;49.678;8.388;2024-03-08T02:30:26;5.80;99.90
6865;DHT22;3471;49.678;8.388;2024-03-08T02:32:55;5.80;99.90
6865;DHT22;3471;49.678;8.388;2024-03-08T02:35:20;5.70;99.90
6865;DHT22;3471;49.678;8.388;2024-03-08T02:37:46;5.70;99.90
6865;DHT22;3471;49.678;8.388;2024-03-08T02:40:13;5.70;99.90
6865;DHT22;3471;49.678;8.388;2024-03-08T02:42:39;5.70;99.90
6865;DHT22;3471;49.678;8.388;2024-03-08T02:45:05;5.70;99.90
6865;DHT22;3471;49.678;8.388;2024-03-08T02:47:31;5.60;99.90
6865;DHT22;3471;49.678;8.388;2024-03-08T02:49:57;5.60;99.90
6865;DHT22;3471;49.678;8.388;2024-03-08T02:52:23;5.60;99.90
6865;DHT22;3471;49.678;8.388;2024-03-08T02:54:48;5.50;99.90
6865;DHT22;3471;49.678;8.388;2024-03-08T02:57:15;5.50;99.90
6865;DHT22;3471;49.678;8.388;2024-03-08T02:59:41;5.50;99.90
6865;DHT22;3471;49.678;8.388;2024-03-08T03:02:06;5.50;99.90
6865;DHT22;3471;49.678;8.388;2024-03-08T03:04:32;5.40;99.90
6865;DHT22;3471;49.678;8.388;2024-03-08T03:07:00;5.40;99.90
6865;DHT22;3471;49.678;8.388;2024-03-08T03:09:26;5.40;99.90
6865;DHT22;3471;49.678;8.388;2024-03-08T03:11:53;5.40;99.90
6865;DHT22;3471;49.678;8.388;2024-03-08T03:14:21;5.40;99.90
6865;DHT22;3471;49.678;8.388;2024-03-08T03:16:46;5.40;99.90
6865;DHT22;3471;49.678;8.388;2024-03-08T03:19:12;5.40;99.90
6865;DHT22;3471;49.678;8.388;2024-03-08T03:21:38;5.30;99.90
6865;DHT22;3471;49.678;8.388;2024-03-08T03:24:04;5.30;99.90
6865;DHT22;3471;49.678;8.388;2024-03-08T03:26:38;5.30;99.90
6865;DHT22;3471;49.678;8.388;2024-03-08T03:29:07;5.30;99.90
6865;DHT22;3471;49.678;8.388;2024-03-08T03:31:34;5.20;99.90
6865;DHT22;3471;49.678;8.388;2024-03-08T03:34:01;5.20;99.90
6865;DHT22;3471;49.678;8.388;2024-03-08T03:36:30;5.20;99.90
6865;DHT22;3471;49.678;8.388;2024-03-08T03:38:56;5.20;99.90
6865;DHT22;3471;49.678;8.388;2024-03-08T03:41:31;5.20;99.90
6865;DHT22;3471;49.678;8.388;2024-03-08T03:43:57;5.10;99.90
6865;DHT22;3471;49.678;8.388;2024-03-08T03:46:23;5.10;99.90
6865;DHT22;3471;49.678;8.388;2024-03-08T03:48:48;5.10;99.90
6865;DHT22;3471;49.678;8.388;2024-03-08T03:51:14;5.10;99.90
6865;DHT22;3471;49.678;8.388;2024-03-08T03:53:40;5.00;99.90
6865;DHT22;3471;49.678;8.388;2024-03-08T03:56:07;5.00;99.90
6865;DHT22;3471;49.678;8.388;2024-03-08T03:58:33;5.00;99.90
6865;DHT22;3471;49.678;8.388;2024-03-08T04:00:58;5.10;99.90
6865;DHT22;3471;49.678;8.388;2024-03-08T04:03:24;5.00;99.90
6865;DHT22;3471;49.678;8.388;2024-03-08T04:05:49;5.10;99.90
6865;DHT22;3471;49.678;8.388;2024-03-08T04:08:16;5.00;99.90
6865;DHT22;3471;49.678;8.388;2024-03-08T04:10:42;5.00;99.90
6865;DHT22;3471;49.678;8.388;2024-03-08T04:13:08;5.00;99.90
6865;DHT22;3471;49.678;8.388;2024-03-08T04:15:35;5.00;99.90
6865;DHT22;3471;49.678;8.388;2024-03-08T04:18:00;5.00;99.90
6865;DHT22;3471;49.678;8.388;2024-03-08T04:20:28;5.00;99.90
6865;DHT22;3471;49.678;8.388;2024-03-08T04:22:53;5.00;99.90
6865;DHT22;3471;49.678;8.388;2024-03-08T04:25:19;5.00;99.90
6865;DHT22;3471;49.678;8.388;2024-03-08T04:27:45;5.00;99.90
6865;DHT22;3471;49.678;8.388;2024-03-08T04:30:12;5.00;99.90
6865;DHT22;3471;49.678;8.388;2024-03-08T04:32:38;5.00;99.90
6865;DHT22;3471;49.678;8.388;2024-03-08T04:35:04;5.00;99.90
6865;DHT22;3471;49.678;8.388;2024-03-08T04:37:29;4.90;99.90
6865;DHT22;3471;49.678;8.388;2024-03-08T04:39:55;4.90;99.90
6865;DHT22;3471;49.678;8.388;2024-03-08T04:42:21;4.90;99.90
6865;DHT22;3471;49.678;8.388;2024-03-08T04:44:47;4.90;99.90
6865;DHT22;3471;49.678;8.388;2024-03-08T04:47:13;4.90;99.90
6865;DHT22;3471;49.678;8.388;2024-03-08T04:49:39;5.00;99.90
6865;DHT22;3471;49.678;8.388;2024-03-08T04:52:05;5.00;99.90
6865;DHT22;3471;49.678;8.388;2024-03-08T04:54:31;5.00;99.90
6865;DHT22;3471;49.678;8.388;2024-03-08T04:56:57;5.00;99.90
6865;DHT22;3471;49.678;8.388;2024-03-08T04:59:22;5.00;99.90
6865;DHT22;3471;49.678;8.388;2024-03-08T05:01:49;5.00;99.90
6865;DHT22;3471;49.678;8.388;2024-03-08T05:04:14;4.90;99.90
6865;DHT22;3471;49.678;8.388;2024-03-08T05:06:41;4.90;99.90
6865;DHT22;3471;49.678;8.388;2024-03-08T05:09:06;4.90;99.90
6865;DHT22;3471;49.678;8.388;2024-03-08T05:11:46;4.90;99.90
6865;DHT22;3471;49.678;8.388;2024-03-08T05:14:13;4.90;99.90
6865;DHT22;3471;49.678;8.388;2024-03-08T05:16:45;4.90;99.90
6865;DHT22;3471;49.678;8.388;2024-03-08T05:19:15;4.80;99.90
6865;DHT22;3471;49.678;8.388;2024-03-08T05:21:51;4.80;99.90
6865;DHT22;3471;49.678;8.388;2024-03-08T05:24:17;4.80;99.90
6865;DHT22;3471;49.678;8.388;2024-03-08T05:26:43;4.70;99.90
6865;DHT22;3471;49.678;8.388;2024-03-08T05:29:09;4.70;99.90
6865;DHT22;3471;49.678;8.388;2024-03-08T05:31:53;4.70;99.90
6865;DHT22;3471;49.678;8.388;2024-03-08T05:34:18;4.70;99.90
6865;DHT22;3471;49.678;8.388;2024-03-08T05:36:48;4.70;99.90
6865;DHT22;3471;49.678;8.388;2024-03-08T05:39:16;4.70;99.90
6865;DHT22;3471;49.678;8.388;2024-03-08T05:41:43;4.70;99.90
6865;DHT22;3471;49.678;8.388;2024-03-08T05:44:09;4.60;99.90
6865;DHT22;3471;49.678;8.388;2024-03-08T05:46:35;4.60;99.90
6865;DHT22;3471;49.678;8.388;2024-03-08T05:49:05;4.50;99.90
6865;DHT22;3471;49.678;8.388;2024-03-08T05:51:35;4.50;99.90
6865;DHT22;3471;49.678;8.388;2024-03-08T05:54:04;4.40;99.90
6865;DHT22;3471;49.678;8.388;2024-03-08T05:56:34;4.40;99.90
6865;DHT22;3471;49.678;8.388;2024-03-08T05:59:01;4.40;99.90
6865;DHT22;3471;49.678;8.388;2024-03-08T06:01:27;4.50;99.90
6865;DHT22;3471;49.678;8.388;2024-03-08T06:03:53;4.40;99.90
6865;DHT22;3471;49.678;8.388;2024-03-08T06:06:21;4.40;99.90
6865;DHT22;3471;49.678;8.388;2024-03-08T06:08:47;4.40;99.90
6865;DHT22;3471;49.678;8.388;2024-03-08T06:11:15;4.40;99.90
6865;DHT22;3471;49.678;8.388;2024-03-08T06:13:40;4.40;99.90
6865;DHT22;3471;49.678;8.388;2024-03-08T06:16:07;4.50;99.90
6865;DHT22;3471;49.678;8.388;2024-03-08T06:18:34;4.50;99.90
6865;DHT22;3471;49.678;8.388;2024-03-08T06:21:02;4.50;99.90
6865;DHT22;3471;49.678;8.388;2024-03-08T06:23:28;4.50;99.90
6865;DHT22;3471;49.678;8.388;2024-03-08T06:25:54;4.60;99.90
6865;DHT22;3471;49.678;8.388;2024-03-08T06:28:20;4.60;99.90
6865;DHT22;3471;49.678;8.388;2024-03-08T06:30:45;4.70;99.90
6865;DHT22;3471;49.678;8.388;2024-03-08T06:33:11;4.70;99.90
6865;DHT22;3471;49.678;8.388;2024-03-08T06:35:37;4.70;99.90
6865;DHT22;3471;49.678;8.388;2024-03-08T06:38:05;4.80;99.90
6865;DHT22;3471;49.678;8.388;2024-03-08T06:40:31;4.80;99.90
6865;DHT22;3471;49.678;8.388;2024-03-08T06:42:56;4.90;99.90
6865;DHT22;3471;49.678;8.388;2024-03-08T06:45:22;4.90;99.90
6865;DHT22;3471;49.678;8.388;2024-03-08T06:47:49;5.00;99.90
6865;DHT22;3471;49.678;8.388;2024-03-08T06:50:15;5.10;99.90
6865;DHT22;3471;49.678;8.388;2024-03-08T06:52:41;5.10;99.90
6865;DHT22;3471;49.678;8.388;2024-03-08T06:55:10;5.20;99.90
6865;DHT22;3471;49.678;8.388;2024-03-08T06:57:39;5.20;99.90
6865;DHT22;3471;49.678;8.388;2024-03-08T07:00:07;5.30;99.90
6865;DHT22;3471;49.678;8.388;2024-03-08T07:02:35;5.40;99.90
6865;DHT22;3471;49.678;8.388;2024-03-08T07:05:01;5.50;99.90
6865;DHT22;3471;49.678;8.388;2024-03-08T07:07:27;5.50;99.90
6865;DHT22;3471;49.678;8.388;2024-03-08T07:09:52;5.60;99.90
6865;DHT22;3471;49.678;8.388;2024-03-08T07:12:18;5.70;99.90
6865;DHT22;3471;49.678;8.388;2024-03-08T07:14:46;5.70;99.90
6865;DHT22;3471;49.678;8.388;2024-03-08T07:17:12;5.80;99.90
6865;DHT22;3471;49.678;8.388;2024-03-08T07:19:38;5.90;99.90
6865;DHT22;3471;49.678;8.388;2024-03-08T07:22:04;5.90;99.90
6865;DHT22;3471;49.678;8.388;2024-03-08T07:24:30;6.00;99.90
6865;DHT22;3471;49.678;8.388;2024-03-08T07:27:16;6.10;99.90
6865;DHT22;3471;49.678;8.388;2024-03-08T07:29:41;6.20;99.90
6865;DHT22;3471;49.678;8.388;2024-03-08T07:32:07;6.30;99.90
6865;DHT22;3471;49.678;8.388;2024-03-08T07:34:49;6.30;99.90
6865;DHT22;3471;49.678;8.388;2024-03-08T07:37:16;6.50;99.90
6865;DHT22;3471;49.678;8.388;2024-03-08T07:39:42;6.60;99.90
6865;DHT22;3471;49.678;8.388;2024-03-08T07:42:08;6.70;99.90
6865;DHT22;3471;49.678;8.388;2024-03-08T07:44:35;6.80;99.90
6865;DHT22;3471;49.678;8.388;2024-03-08T07:47:01;6.90;99.90
6865;DHT22;3471;49.678;8.388;2024-03-08T07:49:26;7.10;99.90
6865;DHT22;3471;49.678;8.388;2024-03-08T07:51:52;7.20;99.90
6865;DHT22;3471;49.678;8.388;2024-03-08T07:54:17;7.30;99.90
6865;DHT22;3471;49.678;8.388;2024-03-08T07:56:43;7.40;99.90
6865;DHT22;3471;49.678;8.388;2024-03-08T07:59:09;7.50;99.90
6865;DHT22;3471;49.678;8.388;2024-03-08T08:01:36;7.60;99.90
6865;DHT22;3471;49.678;8.388;2024-03-08T08:04:02;7.60;99.90
6865;DHT22;3471;49.678;8.388;2024-03-08T08:06:27;7.70;99.90
6865;DHT22;3471;49.678;8.388;2024-03-08T08:08:57;7.80;99.90
6865;DHT22;3471;49.678;8.388;2024-03-08T08:11:22;7.90;99.90
6865;DHT22;3471;49.678;8.388;2024-03-08T08:13:48;7.90;99.90
6865;DHT22;3471;49.678;8.388;2024-03-08T08:16:14;7.80;99.90
6865;DHT22;3471;49.678;8.388;2024-03-08T08:18:39;7.70;99.90
6865;DHT22;3471;49.678;8.388;2024-03-08T08:21:06;7.70;99.90
6865;DHT22;3471;49.678;8.388;2024-03-08T08:23:32;7.80;99.90
6865;DHT22;3471;49.678;8.388;2024-03-08T08:25:58;7.80;99.90
6865;DHT22;3471;49.678;8.388;2024-03-08T08:28:24;7.90;99.90
6865;DHT22;3471;49.678;8.388;2024-03-08T08:30:50;8.00;99.90
6865;DHT22;3471;49.678;8.388;2024-03-08T08:33:16;8.00;99.90
6865;DHT22;3471;49.678;8.388;2024-03-08T08:35:41;8.10;99.90
6865;DHT22;3471;49.678;8.388;2024-03-08T08:38:08;8.10;99.90
6865;DHT22;3471;49.678;8.388;2024-03-08T08:40:34;8.10;99.90
6865;DHT22;3471;49.678;8.388;2024-03-08T08:43:01;8.00;99.90
6865;DHT22;3471;49.678;8.388;2024-03-08T08:45:30;8.10;99.90
6865;DHT22;3471;49.678;8.388;2024-03-08T08:47:55;8.10;99.90
6865;DHT22;3471;49.678;8.388;2024-03-08T08:50:21;8.10;99.90
6865;DHT22;3471;49.678;8.388;2024-03-08T08:52:50;8.20;99.90
6865;DHT22;3471;49.678;8.388;2024-03-08T08:55:16;8.40;99.90
6865;DHT22;3471;49.678;8.388;2024-03-08T08:57:43;8.50;99.90
6865;DHT22;3471;49.678;8.388;2024-03-08T09:00:10;8.50;99.90
6865;DHT22;3471;49.678;8.388;2024-03-08T09:02:41;8.70;99.90
6865;DHT22;3471;49.678;8.388;2024-03-08T09:05:07;8.70;99.90
6865;DHT22;3471;49.678;8.388;2024-03-08T09:07:37;8.70;99.90
6865;DHT22;3471;49.678;8.388;2024-03-08T09:10:03;8.90;99.90
6865;DHT22;3471;49.678;8.388;2024-03-08T09:12:29;9.00;99.90
6865;DHT22;3471;49.678;8.388;2024-03-08T09:14:54;9.10;99.90
6865;DHT22;3471;49.678;8.388;2024-03-08T09:17:20;9.30;99.90
6865;DHT22;3471;49.678;8.388;2024-03-08T09:19:49;9.60;99.90
6865;DHT22;3471;49.678;8.388;2024-03-08T09:22:15;9.60;99.90
6865;DHT22;3471;49.678;8.388;2024-03-08T09:24:40;9.80;99.90
6865;DHT22;3471;49.678;8.388;2024-03-08T09:27:07;9.90;99.90
6865;DHT22;3471;49.678;8.388;2024-03-08T09:29:35;10.10;99.90
6865;DHT22;3471;49.678;8.388;2024-03-08T09:32:01;10.10;99.90
6865;DHT22;3471;49.678;8.388;2024-03-08T09:34:26;10.20;99.90
6865;DHT22;3471;49.678;8.388;2024-03-08T09:36:52;10.40;99.90
6865;DHT22;3471;49.678;8.388;2024-03-08T09:39:18;10.40;99.90
6865;DHT22;3471;49.678;8.388;2024-03-08T09:41:46;10.30;99.90
6865;DHT22;3471;49.678;8.388;2024-03-08T09:44:17;10.20;99.90
6865;DHT22;3471;49.678;8.388;2024-03-08T09:46:45;10.50;99.90
6865;DHT22;3471;49.678;8.388;2024-03-08T09:49:13;10.60;99.90
6865;DHT22;3471;49.678;8.388;2024-03-08T09:51:39;10.70;99.90
6865;DHT22;3471;49.678;8.388;2024-03-08T09:54:07;10.90;99.90
6865;DHT22;3471;49.678;8.388;2024-03-08T09:56:34;10.80;99.90
6865;DHT22;3471;49.678;8.388;2024-03-08T09:59:00;11.10;99.90
6865;DHT22;3471;49.678;8.388;2024-03-08T10:01:41;11.30;99.90
6865;DHT22;3471;49.678;8.388;2024-03-08T10:04:07;11.40;99.90
6865;DHT22;3471;49.678;8.388;2024-03-08T10:06:32;11.40;99.90
6865;DHT22;3471;49.678;8.388;2024-03-08T10:08:58;11.40;99.90
6865;DHT22;3471;49.678;8.388;2024-03-08T10:11:27;11.50;99.90
6865;DHT22;3471;49.678;8.388;2024-03-08T10:13:52;11.60;99.90
6865;DHT22;3471;49.678;8.388;2024-03-08T10:16:18;11.70;99.90
6865;DHT22;3471;49.678;8.388;2024-03-08T10:18:45;12.00;99.90
6865;DHT22;3471;49.678;8.388;2024-03-08T10:21:11;12.00;99.90
6865;DHT22;3471;49.678;8.388;2024-03-08T10:23:37;12.30;99.90
6865;DHT22;3471;49.678;8.388;2024-03-08T10:26:13;12.50;99.90
6865;DHT22;3471;49.678;8.388;2024-03-08T10:28:41;12.60;99.90
6865;DHT22;3471;49.678;8.388;2024-03-08T10:31:07;12.70;99.90
6865;DHT22;3471;49.678;8.388;2024-03-08T10:33:32;12.70;99.90
6865;DHT22;3471;49.678;8.388;2024-03-08T10:35:59;12.50;99.90
6865;DHT22;3471;49.678;8.388;2024-03-08T10:38:26;12.60;99.90
6865;DHT22;3471;49.678;8.388;2024-03-08T10:40:54;12.80;99.90
6865;DHT22;3471;49.678;8.388;2024-03-08T10:43:24;13.10;99.90
6865;DHT22;3471;49.678;8.388;2024-03-08T10:46:30;13.40;99.90
6865;DHT22;3471;49.678;8.388;2024-03-08T10:49:00;13.50;99.90
6865;DHT22;3471;49.678;8.388;2024-03-08T10:51:30;13.60;99.90
6865;DHT22;3471;49.678;8.388;2024-03-08T10:53:57;13.70;99.90
6865;DHT22;3471;49.678;8.388;2024-03-08T10:56:23;13.90;99.90
6865;DHT22;3471;49.678;8.388;2024-03-08T10:58:49;13.90;99.90
6865;DHT22;3471;49.678;8.388;2024-03-08T11:01:15;13.70;99.90
6865;DHT22;3471;49.678;8.388;2024-03-08T11:06:08;13.80;99.90
6865;DHT22;3471;49.678;8.388;2024-03-08T11:08:36;13.70;99.90
6865;DHT22;3471;49.678;8.388;2024-03-08T11:11:02;13.80;99.90
6865;DHT22;3471;49.678;8.388;2024-03-08T11:13:40;13.70;99.90
6865;DHT22;3471;49.678;8.388;2024-03-08T11:18:53;13.80;99.90
6865;DHT22;3471;49.678;8.388;2024-03-08T11:21:18;14.10;99.90
6865;DHT22;3471;49.678;8.388;2024-03-08T11:24:02;14.30;99.90
6865;DHT22;3471;49.678;8.388;2024-03-08T11:26:31;14.70;99.90
6865;DHT22;3471;49.678;8.388;2024-03-08T11:32:17;15.10;99.90
6865;DHT22;3471;49.678;8.388;2024-03-08T11:34:46;15.30;99.90
6865;DHT22;3471;49.678;8.388;2024-03-08T11:37:14;15.20;99.90
6865;DHT22;3471;49.678;8.388;2024-03-08T11:39:49;15.30;99.90
6865;DHT22;3471;49.678;8.388;2024-03-08T11:42:16;15.40;99.90
6865;DHT22;3471;49.678;8.388;2024-03-08T11:44:43;15.50;99.90
6865;DHT22;3471;49.678;8.388;2024-03-08T11:47:10;15.50;99.90
6865;DHT22;3471;49.678;8.388;2024-03-08T11:49:36;15.00;99.90
6865;DHT22;3471;49.678;8.388;2024-03-08T11:52:02;14.80;99.90
6865;DHT22;3471;49.678;8.388;2024-03-08T11:54:28;15.20;99.90
6865;DHT22;3471;49.678;8.388;2024-03-08T11:56:56;15.70;99.90
6865;DHT22;3471;49.678;8.388;2024-03-08T11:59:28;16.10;99.90
6865;DHT22;3471;49.678;8.388;2024-03-08T12:02:03;16.20;99.90
6865;DHT22;3471;49.678;8.388;2024-03-08T12:04:29;16.40;99.90
6865;DHT22;3471;49.678;8.388;2024-03-08T12:06:58;16.50;99.90
6865;DHT22;3471;49.678;8.388;2024-03-08T12:09:26;16.40;99.90
6865;DHT22;3471;49.678;8.388;2024-03-08T12:11:51;16.90;99.90
6865;DHT22;3471;49.678;8.388;2024-03-08T12:14:17;17.10;99.90
6865;DHT22;3471;49.678;8.388;2024-03-08T12:16:43;17.80;98.70
6865;DHT22;3471;49.678;8.388;2024-03-08T12:19:10;18.50;98.60
6865;DHT22;3471;49.678;8.388;2024-03-08T12:21:36;18.70;98.70
6865;DHT22;3471;49.678;8.388;2024-03-08T12:24:05;18.60;97.90
6865;DHT22;3471;49.678;8.388;2024-03-08T12:26:35;18.30;97.90
6865;DHT22;3471;49.678;8.388;2024-03-08T12:29:26;18.30;98.20
6865;DHT22;3471;49.678;8.388;2024-03-08T12:32:00;18.40;97.40
6865;DHT22;3471;49.678;8.388;2024-03-08T12:34:30;18.60;97.60
6865;DHT22;3471;49.678;8.388;2024-03-08T12:36:58;18.60;96.80
6865;DHT22;3471;49.678;8.388;2024-03-08T12:39:23;18.40;96.40
6865;DHT22;3471;49.678;8.388;2024-03-08T12:41:56;18.70;97.30
6865;DHT22;3471;49.678;8.388;2024-03-08T12:44:25;19.00;97.10
6865;DHT22;3471;49.678;8.388;2024-03-08T12:46:51;19.70;96.10
6865;DHT22;3471;49.678;8.388;2024-03-08T12:49:17;20.20;95.20
6865;DHT22;3471;49.678;8.388;2024-03-08T12:51:43;20.90;94.40
6865;DHT22;3471;49.678;8.388;2024-03-08T12:54:09;21.30;93.10
6865;DHT22;3471;49.678;8.388;2024-03-08T12:56:35;21.70;93.90
6865;DHT22;3471;49.678;8.388;2024-03-08T12:59:04;21.90;91.70
6865;DHT22;3471;49.678;8.388;2024-03-08T13:01:30;22.10;90.80
6865;DHT22;3471;49.678;8.388;2024-03-08T13:04:00;21.90;91.70
6865;DHT22;3471;49.678;8.388;2024-03-08T13:06:28;21.90;91.00
6865;DHT22;3471;49.678;8.388;2024-03-08T13:08:56;22.10;91.10
6865;DHT22;3471;49.678;8.388;2024-03-08T13:11:24;21.60;90.90
6865;DHT22;3471;49.678;8.388;2024-03-08T13:13:50;22.00;91.00
6865;DHT22;3471;49.678;8.388;2024-03-08T13:16:16;22.10;87.50
6865;DHT22;3471;49.678;8.388;2024-03-08T13:18:42;22.60;90.60
6865;DHT22;3471;49.678;8.388;2024-03-08T13:21:09;23.00;87.40
6865;DHT22;3471;49.678;8.388;2024-03-08T13:23:39;23.30;86.70
6865;DHT22;3471;49.678;8.388;2024-03-08T13:26:10;23.40;86.90
6865;DHT22;3471;49.678;8.388;2024-03-08T13:28:48;23.90;85.80
6865;DHT22;3471;49.678;8.388;2024-03-08T13:31:19;24.30;83.00
6865;DHT22;3471;49.678;8.388;2024-03-08T13:33:45;24.50;80.80
6865;DHT22;3471;49.678;8.388;2024-03-08T13:36:12;24.00;80.20
6865;DHT22;3471;49.678;8.388;2024-03-08T13:38:45;24.20;80.20
6865;DHT22;3471;49.678;8.388;2024-03-08T13:41:11;24.60;79.70
6865;DHT22;3471;49.678;8.388;2024-03-08T13:43:42;24.60;80.70
6865;DHT22;3471;49.678;8.388;2024-03-08T13:46:08;24.90;77.90
6865;DHT22;3471;49.678;8.388;2024-03-08T13:48:36;25.20;78.60
6865;DHT22;3471;49.678;8.388;2024-03-08T13:51:06;25.50;78.40
6865;DHT22;3471;49.678;8.388;2024-03-08T13:53:32;25.70;74.90
6865;DHT22;3471;49.678;8.388;2024-03-08T13:55:58;25.80;74.30
6865;DHT22;3471;49.678;8.388;2024-03-08T13:58:24;25.40;76.70
6865;DHT22;3471;49.678;8.388;2024-03-08T14:00:50;25.50;74.00
6865;DHT22;3471;49.678;8.388;2024-03-08T14:03:17;25.00;77.60
6865;DHT22;3471;49.678;8.388;2024-03-08T14:05:42;24.80;76.80
6865;DHT22;3471;49.678;8.388;2024-03-08T14:08:11;25.10;74.10
6865;DHT22;3471;49.678;8.388;2024-03-08T14:10:37;25.40;73.20
6865;DHT22;3471;49.678;8.388;2024-03-08T14:13:04;24.80;73.70
6865;DHT22;3471;49.678;8.388;2024-03-08T14:15:33;24.90;72.50
6865;DHT22;3471;49.678;8.388;2024-03-08T14:18:00;25.20;74.90
6865;DHT22;3471;49.678;8.388;2024-03-08T14:20:26;25.30;74.80
6865;DHT22;3471;49.678;8.388;2024-03-08T14:22:53;25.30;72.10
6865;DHT22;3471;49.678;8.388;2024-03-08T14:25:20;25.40;73.90
6865;DHT22;3471;49.678;8.388;2024-03-08T14:27:52;25.60;69.10
6865;DHT22;3471;49.678;8.388;2024-03-08T14:30:23;25.10;71.80
6865;DHT22;3471;49.678;8.388;2024-03-08T14:33:00;25.20;72.80
6865;DHT22;3471;49.678;8.388;2024-03-08T14:35:26;25.20;73.10
6865;DHT22;3471;49.678;8.388;2024-03-08T14:37:52;25.30;73.60
6865;DHT22;3471;49.678;8.388;2024-03-08T14:40:18;25.30;73.10
6865;DHT22;3471;49.678;8.388;2024-03-08T14:42:51;25.20;73.40
6865;DHT22;3471;49.678;8.388;2024-03-08T14:45:17;25.20;70.50
6865;DHT22;3471;49.678;8.388;2024-03-08T14:47:46;25.00;70.60
6865;DHT22;3471;49.678;8.388;2024-03-08T14:50:18;25.10;70.90
6865;DHT22;3471;49.678;8.388;2024-03-08T14:52:45;25.10;70.00
6865;DHT22;3471;49.678;8.388;2024-03-08T14:55:14;25.00;71.10
6865;DHT22;3471;49.678;8.388;2024-03-08T14:57:42;24.70;73.30
6865;DHT22;3471;49.678;8.388;2024-03-08T15:00:14;24.30;74.40
6865;DHT22;3471;49.678;8.388;2024-03-08T15:02:44;24.20;72.20
6865;DHT22;3471;49.678;8.388;2024-03-08T15:05:10;24.00;73.20
6865;DHT22;3471;49.678;8.388;2024-03-08T15:07:40;24.20;72.50
6865;DHT22;3471;49.678;8.388;2024-03-08T15:10:09;24.30;68.90
6865;DHT22;3471;49.678;8.388;2024-03-08T15:12:41;24.00;72.30
6865;DHT22;3471;49.678;8.388;2024-03-08T15:15:12;23.80;72.10
6865;DHT22;3471;49.678;8.388;2024-03-08T15:17:39;23.30;75.60
6865;DHT22;3471;49.678;8.388;2024-03-08T15:20:08;23.10;71.50
6865;DHT22;3471;49.678;8.388;2024-03-08T15:22:49;23.00;72.20
6865;DHT22;3471;49.678;8.388;2024-03-08T15:25:15;22.50;72.70
6865;DHT22;3471;49.678;8.388;2024-03-08T15:27:54;22.20;71.70
6865;DHT22;3471;49.678;8.388;2024-03-08T15:30:21;22.30;72.90
6865;DHT22;3471;49.678;8.388;2024-03-08T15:32:52;22.10;70.90
6865;DHT22;3471;49.678;8.388;2024-03-08T15:35:25;21.50;73.90
6865;DHT22;3471;49.678;8.388;2024-03-08T15:37:51;20.60;73.40
6865;DHT22;3471;49.678;8.388;2024-03-08T15:40:18;19.80;79.50
6865;DHT22;3471;49.678;8.388;2024-03-08T15:45:16;17.90;81.70
6865;DHT22;3471;49.678;8.388;2024-03-08T15:47:43;17.30;83.60
6865;DHT22;3471;49.678;8.388;2024-03-08T15:50:11;16.70;81.70
6865;DHT22;3471;49.678;8.388;2024-03-08T15:52:38;16.30;83.50
6865;DHT22;3471;49.678;8.388;2024-03-08T15:55:07;15.80;87.60
6865;DHT22;3471;49.678;8.388;2024-03-08T15:57:33;15.50;88.90
6865;DHT22;3471;49.678;8.388;2024-03-08T15:59:59;15.30;87.00
6865;DHT22;3471;49.678;8.388;2024-03-08T16:02:26;15.00;89.60
6865;DHT22;3471;49.678;8.388;2024-03-08T16:04:53;14.70;92.30
6865;DHT22;3471;49.678;8.388;2024-03-08T16:07:19;14.40;92.60
6865;DHT22;3471;49.678;8.388;2024-03-08T16:09:45;14.20;93.30
6865;DHT22;3471;49.678;8.388;2024-03-08T16:12:10;14.00;93.90
6865;DHT22;3471;49.678;8.388;2024-03-08T16:14:37;13.80;92.70
6865;DHT22;3471;49.678;8.388;2024-03-08T16:17:03;13.70;93.50
6865;DHT22;3471;49.678;8.388;2024-03-08T16:19:29;13.70;94.40
6865;DHT22;3471;49.678;8.388;2024-03-08T16:21:56;13.70;94.80
6865;DHT22;3471;49.678;8.388;2024-03-08T16:24:23;13.70;94.50
6865;DHT22;3471;49.678;8.388;2024-03-08T16:26:48;13.60;96.40